createdAt,value
2019-01-03T00:02:45.795Z,0.60
2019-01-03T00:05:33.220Z,0.60
2019-01-03T00:08:39.971Z,0.60
2019-01-03T00:11:21.250Z,0.50
2019-01-03T00:14:08.335Z,0.50
2019-01-03T00:16:55.599Z,0.50
2019-01-03T00:19:53.121Z,0.50
2019-01-03T00:22:40.539Z,0.50
2019-01-03T00:25:23.107Z,0.50
2019-01-03T00:28:10.384Z,0.60
2019-01-03T00:31:12.311Z,0.60
2019-01-03T00:33:57.669Z,0.50
2019-01-03T00:37:00.886Z,0.50
2019-01-03T00:40:07.575Z,0.50
2019-01-03T00:42:56.123Z,0.50
2019-01-03T00:45:43.831Z,0.50
2019-01-03T00:48:39.443Z,0.50
2019-01-03T00:51:28.051Z,0.40
2019-01-03T00:54:19.367Z,0.40
2019-01-03T00:57:06.329Z,0.40
2019-01-03T01:00:00.886Z,0.40
2019-01-03T01:02:48.353Z,0.40
2019-01-03T01:05:37.635Z,0.40
2019-01-03T01:08:25.063Z,0.40
2019-01-03T01:11:13.747Z,0.40
2019-01-03T01:14:14.675Z,0.30
2019-01-03T01:17:02.211Z,0.30
2019-01-03T01:19:49.976Z,0.30
2019-01-03T01:22:37.139Z,0.20
2019-01-03T01:25:31.836Z,0.20
2019-01-03T01:28:22.824Z,0.20
2019-01-03T01:31:11.448Z,0.20
2019-01-03T01:34:12.287Z,0.20
2019-01-03T01:37:06.082Z,0.20
2019-01-03T01:40:03.460Z,0.30
2019-01-03T01:42:46.360Z,0.20
2019-01-03T01:45:33.768Z,0.20
2019-01-03T01:48:20.982Z,0.30
2019-01-03T01:51:09.549Z,0.30
2019-01-03T01:54:09.954Z,0.30
2019-01-03T01:56:58.839Z,0.30
2019-01-03T01:59:56.554Z,0.30
2019-01-03T02:02:44.043Z,0.20
2019-01-03T02:05:36.019Z,0.30
2019-01-03T02:08:37.212Z,0.20
2019-01-03T02:11:23.840Z,0.30
2019-01-03T02:14:03.243Z,0.20
2019-01-03T02:16:46.147Z,0.20
2019-01-03T02:19:40.751Z,0.30
2019-01-03T02:22:41.583Z,0.20
2019-01-03T02:25:39.467Z,0.20
2019-01-03T02:28:24.567Z,0.20
2019-01-03T02:31:16.627Z,0.20
2019-01-03T02:34:17.550Z,0.20
2019-01-03T02:37:04.821Z,0.20
2019-01-03T02:39:52.045Z,0.10
2019-01-03T02:42:43.568Z,0.10
2019-01-03T02:45:29.779Z,0.10
2019-01-03T02:48:30.639Z,0.10
2019-01-03T02:51:16.577Z,0.10
2019-01-03T02:54:02.921Z,0.10
2019-01-03T02:56:45.935Z,0.10
2019-01-03T02:59:34.468Z,0.10
2019-01-03T03:02:29.039Z,0.00
2019-01-03T03:05:16.561Z,0.00
2019-01-03T03:08:05.163Z,0.00
2019-01-03T03:10:51.342Z,0.00
2019-01-03T03:13:42.961Z,0.00
2019-01-03T03:16:30.840Z,0.10
2019-01-03T03:19:18.059Z,0.10
2019-01-03T03:22:06.572Z,0.10
2019-01-03T03:24:54.185Z,0.10
2019-01-03T03:27:41.578Z,0.10
2019-01-03T03:30:29.117Z,0.10
2019-01-03T03:33:14.720Z,0.10
2019-01-03T03:36:12.220Z,0.10
2019-01-03T03:38:59.586Z,0.10
2019-01-03T03:42:06.866Z,0.10
2019-01-03T03:44:58.474Z,0.10
2019-01-03T03:47:55.188Z,0.10
2019-01-03T03:50:40.878Z,0.10
2019-01-03T03:53:45.211Z,0.10
2019-01-03T03:56:26.626Z,0.10
2019-01-03T03:59:27.175Z,0.10
2019-01-03T04:02:31.032Z,0.20
2019-01-03T04:05:26.436Z,0.10
2019-01-03T04:08:06.361Z,0.20
2019-01-03T04:10:57.769Z,0.20
2019-01-03T04:13:41.611Z,0.10
2019-01-03T04:16:30.161Z,0.20
2019-01-03T04:19:24.884Z,0.20
2019-01-03T04:22:09.929Z,0.20
2019-01-03T04:24:58.476Z,0.20
2019-01-03T04:27:52.195Z,0.20
2019-01-03T04:30:51.187Z,0.20
2019-01-03T04:33:54.956Z,0.20
2019-01-03T04:36:43.500Z,0.20
2019-01-03T04:39:32.030Z,0.20
2019-01-03T04:42:26.500Z,0.20
2019-01-03T04:45:24.324Z,0.20
2019-01-03T04:48:04.742Z,0.20
2019-01-03T04:50:51.915Z,0.20
2019-01-03T04:53:39.261Z,0.20
2019-01-03T04:56:30.911Z,0.20
2019-01-03T04:59:26.063Z,0.20
2019-01-03T05:02:13.897Z,0.20
2019-01-03T05:05:08.327Z,0.20
2019-01-03T05:07:53.627Z,0.20
2019-01-03T05:10:45.320Z,0.20
2019-01-03T05:13:32.486Z,0.20
2019-01-03T05:16:36.398Z,0.30
2019-01-03T05:19:33.923Z,0.30
2019-01-03T05:22:29.030Z,0.30
2019-01-03T05:25:11.392Z,0.20
2019-01-03T05:27:54.920Z,0.30
2019-01-03T05:30:46.172Z,0.30
2019-01-03T05:33:39.002Z,0.30
2019-01-03T05:36:21.928Z,0.30
2019-01-03T05:39:15.720Z,0.30
2019-01-03T05:42:03.040Z,0.30
2019-01-03T05:44:50.263Z,0.30
2019-01-03T05:47:31.015Z,0.30
2019-01-03T05:50:31.992Z,0.30
2019-01-03T05:53:12.644Z,0.30
2019-01-03T05:56:07.339Z,0.30
2019-01-03T05:58:56.503Z,0.40
2019-01-03T06:01:43.790Z,0.30
2019-01-03T06:04:45.799Z,0.40
2019-01-03T06:07:33.361Z,0.40
2019-01-03T06:10:34.335Z,0.40
2019-01-03T06:13:24.754Z,0.40
2019-01-03T06:16:24.963Z,0.40
2019-01-03T06:19:16.638Z,0.40
2019-01-03T06:21:56.647Z,0.50
2019-01-03T06:24:43.689Z,0.40
2019-01-03T06:27:41.529Z,0.50
2019-01-03T06:30:25.867Z,0.50
2019-01-03T06:33:10.259Z,0.50
2019-01-03T06:35:53.800Z,0.50
2019-01-03T06:38:31.786Z,0.50
2019-01-03T06:41:26.663Z,0.50
2019-01-03T06:44:14.144Z,0.50
2019-01-03T06:47:01.452Z,0.50
2019-01-03T06:50:06.660Z,0.50
2019-01-03T06:53:04.730Z,0.50
2019-01-03T06:56:05.762Z,0.50
2019-01-03T06:58:53.198Z,0.60
2019-01-03T07:01:40.470Z,0.60
2019-01-03T07:04:27.649Z,0.60
2019-01-03T07:07:19.009Z,0.60
2019-01-03T07:10:10.517Z,0.70
2019-01-03T07:12:57.822Z,0.70
2019-01-03T07:15:49.546Z,0.70
2019-01-03T07:18:36.577Z,0.70
2019-01-03T07:21:39.900Z,0.70
2019-01-03T07:24:31.364Z,0.70
2019-01-03T07:27:22.720Z,0.80
2019-01-03T07:30:11.390Z,0.70
2019-01-03T07:33:00.050Z,0.70
2019-01-03T07:35:51.718Z,0.80
2019-01-03T07:38:46.221Z,0.80
2019-01-03T07:41:33.669Z,0.80
2019-01-03T07:44:34.704Z,0.90
2019-01-03T07:47:16.729Z,0.90
2019-01-03T07:50:23.739Z,0.90
2019-01-03T07:53:11.412Z,0.90
2019-01-03T07:55:56.557Z,0.90
2019-01-03T07:58:44.965Z,0.90
2019-01-03T08:01:36.646Z,0.90
2019-01-03T08:04:26.519Z,0.90
2019-01-03T08:07:22.219Z,1.00
2019-01-03T08:10:25.705Z,0.90
2019-01-03T08:13:13.649Z,1.00
2019-01-03T08:16:20.771Z,1.00
2019-01-03T08:19:09.170Z,1.00
2019-01-03T08:21:58.017Z,1.00
2019-01-03T08:24:40.029Z,1.00
2019-01-03T08:27:27.365Z,1.00
2019-01-03T08:30:16.077Z,1.00
2019-01-03T08:33:03.764Z,1.00
2019-01-03T08:35:55.604Z,1.10
2019-01-03T08:38:54.858Z,1.10
2019-01-03T08:41:42.778Z,1.10
2019-01-03T08:44:37.197Z,1.10
2019-01-03T08:47:24.772Z,1.10
2019-01-03T08:50:25.664Z,1.10
2019-01-03T08:53:13.650Z,1.20
2019-01-03T08:56:17.256Z,1.20
2019-01-03T08:59:04.786Z,1.20
2019-01-03T09:01:59.366Z,1.20
2019-01-03T09:04:48.617Z,1.20
2019-01-03T09:07:35.980Z,1.20
2019-01-03T09:10:23.966Z,1.20
2019-01-03T09:13:27.823Z,1.20
2019-01-03T09:16:06.852Z,1.20
2019-01-03T09:18:54.467Z,1.20
2019-01-03T09:21:40.834Z,1.20
2019-01-03T09:24:35.526Z,1.20
2019-01-03T09:27:23.192Z,1.30
2019-01-03T09:30:18.095Z,1.20
2019-01-03T09:33:06.659Z,1.20
2019-01-03T09:35:54.033Z,1.10
2019-01-03T09:38:37.222Z,1.10
2019-01-03T09:41:17.727Z,1.00
2019-01-03T09:44:06.521Z,1.00
2019-01-03T09:46:36.109Z,1.00
2019-01-03T09:49:05.734Z,1.00
2019-01-03T09:51:35.391Z,1.00
2019-01-03T09:54:05.063Z,1.00
2019-01-03T09:56:34.639Z,0.90
2019-01-03T09:59:04.287Z,1.00
2019-01-03T10:01:33.794Z,1.00
2019-01-03T10:04:03.619Z,1.10
2019-01-03T10:06:33.129Z,1.10
2019-01-03T10:09:02.705Z,1.10
2019-01-03T10:11:32.334Z,1.00
2019-01-03T10:14:01.930Z,1.10
2019-01-03T10:16:31.440Z,1.10
2019-01-03T10:19:01.071Z,1.10
2019-01-03T10:21:30.667Z,1.10
2019-01-03T10:24:00.264Z,1.10
2019-01-03T10:26:29.869Z,1.10
2019-01-03T10:28:59.425Z,1.10
2019-01-03T10:31:29.030Z,1.10
2019-01-03T10:33:58.615Z,1.20
2019-01-03T10:36:28.192Z,1.20
2019-01-03T10:38:57.702Z,1.20
2019-01-03T10:41:27.228Z,1.20
2019-01-03T10:43:56.744Z,1.20
2019-01-03T10:46:26.376Z,1.30
2019-01-03T10:48:55.948Z,1.30
2019-01-03T10:51:25.556Z,1.30
2019-01-03T10:53:55.044Z,1.30
2019-01-03T10:56:24.674Z,1.30
2019-01-03T10:58:54.206Z,1.30
2019-01-03T11:01:23.912Z,1.40
2019-01-03T11:03:53.474Z,1.40
2019-01-03T11:06:23.073Z,1.40
2019-01-03T11:08:52.688Z,1.40
2019-01-03T11:11:22.251Z,1.40
2019-01-03T11:13:51.824Z,1.50
2019-01-03T11:16:21.409Z,1.50
2019-01-03T11:18:51.109Z,1.50
2019-01-03T11:21:21.889Z,1.50
2019-01-03T11:23:51.667Z,1.50
2019-01-03T11:26:21.275Z,1.60
2019-01-03T11:28:50.910Z,1.60
2019-01-03T11:31:20.512Z,1.60
2019-01-03T11:33:50.085Z,1.60
2019-01-03T11:36:19.711Z,1.60
2019-01-03T11:38:49.313Z,1.60
2019-01-03T11:41:19.045Z,1.70
2019-01-03T11:43:48.657Z,1.70
2019-01-03T11:46:18.165Z,1.70
2019-01-03T11:48:47.697Z,1.70
2019-01-03T11:51:17.459Z,1.70
2019-01-03T11:53:47.101Z,1.70
2019-01-03T11:56:16.695Z,1.80
2019-01-03T11:58:46.284Z,1.80
2019-01-03T12:01:16.000Z,1.80
2019-01-03T12:03:45.846Z,1.80
2019-01-03T12:06:15.539Z,1.80
2019-01-03T12:08:45.169Z,1.80
2019-01-03T12:11:14.775Z,1.80
2019-01-03T12:13:44.333Z,1.90
2019-01-03T12:16:14.072Z,1.80
2019-01-03T12:18:43.706Z,1.90
2019-01-03T12:21:13.433Z,1.90
2019-01-03T12:23:43.009Z,1.90
2019-01-03T12:26:12.788Z,1.90
2019-01-03T12:28:42.412Z,1.90
2019-01-03T12:31:11.950Z,1.90
2019-01-03T12:33:41.714Z,1.90
2019-01-03T12:36:11.328Z,1.90
2019-01-03T12:38:40.848Z,2.00
2019-01-03T12:41:10.350Z,2.00
2019-01-03T12:43:39.927Z,2.00
2019-01-03T12:46:09.556Z,2.00
2019-01-03T12:48:45.343Z,2.00
2019-01-03T12:51:10.516Z,2.00
2019-01-03T12:53:40.307Z,2.00
2019-01-03T12:56:09.878Z,2.10
2019-01-03T12:58:39.429Z,2.00
2019-01-03T13:01:08.986Z,2.10
2019-01-03T13:03:38.733Z,2.10
2019-01-03T13:06:08.454Z,2.10
2019-01-03T13:08:38.180Z,2.10
2019-01-03T13:11:07.797Z,2.10
2019-01-03T13:13:37.408Z,2.10
2019-01-03T13:16:06.922Z,2.20
2019-01-03T13:18:36.545Z,2.10
2019-01-03T13:21:06.230Z,2.20
2019-01-03T13:23:35.735Z,2.20
2019-01-03T13:26:05.329Z,2.20
2019-01-03T13:28:35.017Z,2.10
2019-01-03T13:31:05.049Z,2.10
2019-01-03T13:33:34.785Z,2.10
2019-01-03T13:36:04.467Z,2.10
2019-01-03T13:38:33.997Z,2.10
2019-01-03T13:41:03.649Z,2.10
2019-01-03T13:43:33.397Z,2.10
2019-01-03T13:46:03.105Z,2.20
2019-01-03T13:48:32.613Z,2.20
2019-01-03T13:51:02.115Z,2.10
2019-01-03T13:53:31.841Z,2.10
2019-01-03T13:56:01.495Z,2.10
2019-01-03T13:58:31.063Z,2.10
2019-01-03T14:01:00.701Z,2.10
2019-01-03T14:03:30.728Z,2.10
2019-01-03T14:06:00.298Z,2.10
2019-01-03T14:08:30.011Z,2.10
2019-01-03T14:10:59.590Z,2.10
2019-01-03T14:13:29.328Z,2.10
2019-01-03T14:15:58.908Z,2.10
2019-01-03T14:18:29.057Z,2.10
2019-01-03T14:20:59.967Z,2.10
2019-01-03T14:23:29.648Z,2.00
2019-01-03T14:25:59.214Z,2.10
2019-01-03T14:28:28.801Z,2.00
2019-01-03T14:30:58.408Z,2.10
2019-01-03T14:33:28.216Z,2.00
2019-01-03T14:35:57.808Z,2.00
2019-01-03T14:38:27.632Z,2.00
2019-01-03T14:40:57.264Z,2.00
2019-01-03T14:43:27.020Z,2.00
2019-01-03T14:45:56.613Z,2.00
2019-01-03T14:48:26.270Z,2.00
2019-01-03T14:50:55.785Z,2.00
2019-01-03T14:53:25.379Z,2.00
2019-01-03T14:55:55.124Z,2.00
2019-01-03T14:58:24.849Z,2.00
2019-01-03T15:00:54.448Z,2.00
2019-01-03T15:03:24.045Z,2.00
2019-01-03T15:05:53.783Z,2.00
2019-01-03T15:08:23.397Z,1.90
2019-01-03T15:10:53.049Z,1.90
2019-01-03T15:13:22.613Z,2.00
2019-01-03T15:15:52.195Z,1.90
2019-01-03T15:18:21.865Z,1.90
2019-01-03T15:20:51.424Z,1.90
2019-01-03T15:23:20.916Z,1.90
2019-01-03T15:25:50.693Z,1.90
2019-01-03T15:28:20.259Z,1.90
2019-01-03T15:30:49.851Z,1.90
2019-01-03T15:33:19.503Z,1.90
2019-01-03T15:35:49.128Z,1.90
2019-01-03T15:38:18.739Z,1.90
2019-01-03T15:40:48.269Z,1.90
2019-01-03T15:43:17.799Z,1.90
2019-01-03T15:45:47.556Z,1.80
2019-01-03T15:48:17.169Z,1.80
2019-01-03T15:50:46.784Z,1.90
2019-01-03T15:53:16.383Z,1.80
2019-01-03T15:55:45.902Z,1.80
2019-01-03T15:58:15.515Z,1.80
2019-01-03T16:00:45.136Z,1.80
2019-01-03T16:03:14.716Z,1.80
2019-01-03T16:05:44.366Z,1.80
2019-01-03T16:08:13.944Z,1.70
2019-01-03T16:10:43.551Z,1.70
2019-01-03T16:13:13.174Z,1.70
2019-01-03T16:15:42.878Z,1.70
2019-01-03T16:18:12.563Z,1.70
2019-01-03T16:20:42.293Z,1.70
2019-01-03T16:23:11.797Z,1.70
2019-01-03T16:25:41.406Z,1.80
2019-01-03T16:28:10.947Z,1.70
2019-01-03T16:30:40.497Z,1.70
2019-01-03T16:33:09.997Z,1.70
2019-01-03T16:35:39.607Z,1.70
2019-01-03T16:38:09.271Z,1.70
2019-01-03T16:40:38.927Z,1.70
2019-01-03T16:43:09.307Z,1.70
2019-01-03T16:45:39.088Z,1.70
2019-01-03T16:48:08.708Z,1.70
2019-01-03T16:50:38.251Z,1.60
2019-01-03T16:53:07.889Z,1.70
2019-01-03T16:55:37.447Z,1.70
2019-01-03T16:58:07.055Z,1.60
2019-01-03T17:00:36.715Z,1.60
2019-01-03T17:03:06.419Z,1.60
2019-01-03T17:05:36.033Z,1.60
2019-01-03T17:08:05.529Z,1.60
2019-01-03T17:10:34.989Z,1.60
2019-01-03T17:13:04.504Z,1.60
2019-01-03T17:15:34.139Z,1.60
2019-01-03T17:18:05.114Z,1.50
2019-01-03T17:20:34.661Z,1.60
2019-01-03T17:23:04.234Z,1.50
2019-01-03T17:25:33.970Z,1.50
2019-01-03T17:28:03.578Z,1.50
2019-01-03T17:30:33.186Z,1.50
2019-01-03T17:33:02.869Z,1.50
2019-01-03T17:35:32.370Z,1.50
2019-01-03T17:38:01.913Z,1.40
2019-01-03T17:40:31.459Z,1.40
2019-01-03T17:43:01.130Z,1.40
2019-01-03T17:45:30.828Z,1.40
2019-01-03T17:48:00.394Z,1.40
2019-01-03T17:50:29.893Z,1.40
2019-01-03T17:52:59.544Z,1.40
2019-01-03T17:55:29.206Z,1.40
2019-01-03T17:57:58.720Z,1.40
2019-01-03T18:00:28.376Z,1.40
2019-01-03T18:03:17.219Z,1.40
2019-01-03T18:05:47.012Z,1.30
2019-01-03T18:08:16.692Z,1.40
2019-01-03T18:10:46.158Z,1.30
2019-01-03T18:13:15.907Z,1.30
2019-01-03T18:15:45.481Z,1.30
2019-01-03T18:18:15.054Z,1.30
2019-01-03T18:20:44.745Z,1.30
2019-01-03T18:23:14.248Z,1.30
2019-01-03T18:25:43.858Z,1.20
2019-01-03T18:28:13.411Z,1.20
2019-01-03T18:30:42.975Z,1.20
2019-01-03T18:33:12.577Z,1.20
2019-01-03T18:35:42.245Z,1.20
2019-01-03T18:38:11.902Z,1.20
2019-01-03T18:40:41.437Z,1.20
2019-01-03T18:43:11.219Z,1.20
2019-01-03T18:45:40.791Z,1.10
2019-01-03T18:48:10.318Z,1.10
2019-01-03T18:50:39.932Z,1.10
2019-01-03T18:53:09.591Z,1.00
2019-01-03T18:55:39.879Z,1.10
2019-01-03T18:58:09.404Z,1.00
2019-01-03T19:00:38.929Z,1.00
2019-01-03T19:03:08.540Z,1.00
2019-01-03T19:05:38.100Z,1.00
2019-01-03T19:08:07.857Z,1.00
2019-01-03T19:10:37.429Z,1.00
2019-01-03T19:13:08.031Z,0.90
2019-01-03T19:15:37.705Z,0.90
2019-01-03T19:18:07.975Z,0.90
2019-01-03T19:20:38.970Z,0.90
2019-01-03T19:23:08.508Z,0.90
2019-01-03T19:25:38.136Z,0.90
2019-01-03T19:28:07.739Z,0.90
2019-01-03T19:30:37.346Z,0.90
2019-01-03T19:33:06.952Z,0.80
2019-01-03T19:35:36.526Z,0.80
2019-01-03T19:38:06.120Z,0.80
2019-01-03T19:40:35.805Z,0.80
2019-01-03T19:43:05.310Z,0.80
2019-01-03T19:45:34.897Z,0.80
2019-01-03T19:48:04.402Z,0.70
2019-01-03T19:50:34.006Z,0.70
2019-01-03T19:53:03.510Z,0.70
2019-01-03T19:55:33.229Z,0.70
2019-01-03T19:58:02.710Z,0.70
2019-01-03T20:00:32.484Z,0.70
2019-01-03T20:03:02.065Z,0.70
2019-01-03T20:05:31.700Z,0.60
2019-01-03T20:08:01.265Z,0.60
2019-01-03T20:10:31.074Z,0.60
2019-01-03T20:13:00.811Z,0.60
2019-01-03T20:15:30.336Z,0.60
2019-01-03T20:17:59.919Z,0.60
2019-01-03T20:20:29.553Z,0.60
2019-01-03T20:22:59.076Z,0.60
2019-01-03T20:25:28.673Z,0.60
2019-01-03T20:27:58.245Z,0.60
2019-01-03T20:30:27.865Z,0.60
2019-01-03T20:32:57.490Z,0.60
2019-01-03T20:35:27.155Z,0.60
2019-01-03T20:37:56.658Z,0.60
2019-01-03T20:40:26.263Z,0.60
2019-01-03T20:42:55.895Z,0.60
2019-01-03T20:45:25.502Z,0.60
2019-01-03T20:47:54.993Z,0.50
2019-01-03T20:50:24.798Z,0.50
2019-01-03T20:52:56.481Z,0.50
2019-01-03T20:55:26.366Z,0.50
2019-01-03T20:57:55.872Z,0.60
2019-01-03T21:00:25.491Z,0.50
2019-01-03T21:02:56.696Z,0.50
2019-01-03T21:05:26.363Z,0.50
2019-01-03T21:07:55.942Z,0.50
2019-01-03T21:10:25.600Z,0.50
2019-01-03T21:12:55.102Z,0.50
2019-01-03T21:15:24.771Z,0.50
2019-01-03T21:17:54.298Z,0.40
2019-01-03T21:20:23.808Z,0.40
2019-01-03T21:22:53.413Z,0.50
2019-01-03T21:25:23.044Z,0.40
2019-01-03T21:27:52.816Z,0.40
2019-01-03T21:30:22.418Z,0.40
2019-01-03T21:32:52.074Z,0.40
2019-01-03T21:35:21.656Z,0.40
2019-01-03T21:37:51.238Z,0.40
2019-01-03T21:40:20.844Z,0.40
2019-01-03T21:42:50.456Z,0.40
2019-01-03T21:45:20.087Z,0.40
2019-01-03T21:47:49.622Z,0.40
2019-01-03T21:50:19.172Z,0.40
2019-01-03T21:52:48.709Z,0.40
2019-01-03T21:55:18.302Z,0.40
2019-01-03T21:57:47.836Z,0.40
2019-01-03T22:00:17.560Z,0.40
2019-01-03T22:02:47.158Z,0.40
2019-01-03T22:05:16.769Z,0.40
2019-01-03T22:07:46.381Z,0.30
2019-01-03T22:10:15.930Z,0.30
2019-01-03T22:12:45.556Z,0.30
2019-01-03T22:15:15.195Z,0.40
2019-01-03T22:17:44.761Z,0.30
2019-01-03T22:20:14.414Z,0.30
2019-01-03T22:22:44.200Z,0.30
2019-01-03T22:25:13.677Z,0.30
2019-01-03T22:27:43.201Z,0.30
2019-01-03T22:30:12.895Z,0.30
2019-01-03T22:32:42.611Z,0.30
2019-01-03T22:35:12.109Z,0.20
2019-01-03T22:37:41.825Z,0.20
2019-01-03T22:40:11.387Z,0.20
2019-01-03T22:42:40.985Z,0.20
2019-01-03T22:45:11.589Z,0.20
2019-01-03T22:47:41.107Z,0.20
2019-01-03T22:50:10.992Z,0.20
2019-01-03T22:52:40.598Z,0.20
2019-01-03T22:55:10.254Z,0.10
2019-01-03T22:57:39.832Z,0.10
2019-01-03T23:00:26.310Z,0.10
2019-01-03T23:02:55.971Z,0.10
2019-01-03T23:05:25.532Z,0.10
2019-01-03T23:07:55.098Z,0.10
2019-01-03T23:10:24.698Z,0.10
2019-01-03T23:12:54.197Z,0.10
2019-01-03T23:15:23.859Z,0.00
2019-01-03T23:17:53.414Z,0.00
2019-01-03T23:20:22.974Z,0.00
2019-01-03T23:22:52.532Z,0.10
2019-01-03T23:25:22.134Z,0.10
2019-01-03T23:27:51.690Z,0.10
2019-01-03T23:30:21.202Z,0.10
2019-01-03T23:32:50.806Z,0.10
2019-01-03T23:35:20.330Z,0.10
2019-01-03T23:37:49.820Z,0.10
2019-01-03T23:40:19.433Z,0.10
2019-01-03T23:42:49.134Z,0.10
2019-01-03T23:45:23.655Z,0.10
2019-01-03T23:47:55.105Z,0.10
2019-01-03T23:50:27.467Z,0.20
2019-01-03T23:52:57.224Z,0.10
2019-01-03T23:55:27.262Z,0.20
2019-01-03T23:57:56.912Z,0.10
